Time;durP1;ratioP1;P1;durP2;ratioP2;P2;SDS_P1;SDS_P2;PMS_P1;PMS_P2;Temp;Humidity;BMP_temperature;BMP_pressure;BME280_temperature;BME280_humidity;BME280_pressure;Samples;Min_cycle;Max_cycle;Signal;HPM_P1;HPM_P2
2023/09/01 00:00:47;;;;;;;1.23;1.23;;;;;;;;;;5048506;28;20457;-70
2023/09/01 00:03:13;;;;;;;1.13;1.13;;;;;;;;;;5049551;28;20426;-72
2023/09/01 00:05:39;;;;;;;0.90;0.90;;;;;;;;;;5046864;28;20485;-72
2023/09/01 00:08:05;;;;;;;4.63;1.10;;;;;;;;;;5047199;28;20996;-73
2023/09/01 00:10:31;;;;;;;0.90;0.90;;;;;;;;;;5049235;28;20526;-70
2023/09/01 00:12:59;;;;;;;1.40;1.30;;;;;;;;;;5049867;28;20437;-71
2023/09/01 00:15:25;;;;;;;3.63;1.37;;;;;;;;;;5048726;28;20422;-72
2023/09/01 00:17:51;;;;;;;2.83;0.90;;;;;;;;;;5047459;28;20979;-69
2023/09/01 00:20:17;;;;;;;1.23;1.13;;;;;;;;;;5049879;28;20418;-72
2023/09/01 00:22:43;;;;;;;2.87;1.37;;;;;;;;;;5046661;28;20426;-71
2023/09/01 00:25:09;;;;;;;0.93;0.80;;;;;;;;;;5046904;28;20592;-70
2023/09/01 00:27:35;;;;;;;1.13;1.10;;;;;;;;;;5046150;28;20433;-70
2023/09/01 00:30:01;;;;;;;3.00;1.17;;;;;;;;;;5043650;28;20427;-70
2023/09/01 00:32:27;;;;;;;1.70;1.27;;;;;;;;;;5049208;28;20419;-72
2023/09/01 00:34:56;;;;;;;0.90;0.90;;;;;;;;;;5048442;28;20850;-70
2023/09/01 00:37:22;;;;;;;0.97;0.90;;;;;;;;;;5047116;28;20954;-71
2023/09/01 00:39:48;;;;;;;1.53;1.20;;;;;;;;;;5035517;28;20434;-69
2023/09/01 00:42:14;;;;;;;3.37;1.20;;;;;;;;;;5047388;28;20456;-71
2023/09/01 00:44:40;;;;;;;5.70;1.00;;;;;;;;;;5048643;28;20486;-73
2023/09/01 00:47:07;;;;;;;1.47;1.37;;;;;;;;;;5047396;28;20441;-73
2023/09/01 00:49:33;;;;;;;3.80;1.07;;;;;;;;;;5044782;28;20435;-73
2023/09/01 00:51:59;;;;;;;4.00;1.30;;;;;;;;;;5043963;28;20434;-72
2023/09/01 00:54:25;;;;;;;3.00;2.80;;;;;;;;;;5049049;28;20488;-71
2023/09/01 00:56:54;;;;;;;1.90;0.70;;;;;;;;;;5045961;28;20442;-73
2023/09/01 00:59:20;;;;;;;0.97;0.97;;;;;;;;;;5044588;28;20791;-73
2023/09/01 01:01:46;;;;;;;1.23;1.13;;;;;;;;;;5043119;28;20431;-72
2023/09/01 01:04:14;;;;;;;1.00;1.00;;;;;;;;;;5048473;28;20482;-73
2023/09/01 01:06:49;;;;;;;2.70;1.30;;;;;;;;;;5046141;28;20485;-73
2023/09/01 01:09:27;;;;;;;0.80;0.80;;;;;;;;;;5045453;28;20937;-72
2023/09/01 01:12:06;;;;;;;1.00;1.00;;;;;;;;;;5047876;28;20437;-74
2023/09/01 01:14:39;;;;;;;2.10;1.30;;;;;;;;;;5048042;28;20439;-72
2023/09/01 01:17:06;;;;;;;1.00;1.00;;;;;;;;;;5047801;28;20942;-73
2023/09/01 01:19:35;;;;;;;0.70;0.70;;;;;;;;;;5043991;28;20434;-73
2023/09/01 01:22:01;;;;;;;0.90;0.90;;;;;;;;;;5045267;28;20434;-72
2023/09/01 01:24:27;;;;;;;1.20;0.80;;;;;;;;;;5047343;28;20491;-71
2023/09/01 01:26:53;;;;;;;0.90;0.90;;;;;;;;;;5046197;28;20937;-72
2023/09/01 01:29:19;;;;;;;0.70;0.70;;;;;;;;;;5048127;28;20923;-72
2023/09/01 01:31:45;;;;;;;1.07;0.97;;;;;;;;;;5044927;28;20508;-72
2023/09/01 01:34:17;;;;;;;1.37;0.90;;;;;;;;;;5044609;28;20442;-72
2023/09/01 01:36:49;;;;;;;0.80;0.80;;;;;;;;;;5050428;28;20914;-72
2023/09/01 01:39:17;;;;;;;1.10;1.00;;;;;;;;;;5050343;28;20958;-73
2023/09/01 01:41:45;;;;;;;1.00;1.00;;;;;;;;;;5050792;28;20441;-73
2023/09/01 01:44:14;;;;;;;1.10;1.10;;;;;;;;;;5050841;28;20527;-72
2023/09/01 01:46:40;;;;;;;1.23;1.13;;;;;;;;;;5049736;28;20923;-72
2023/09/01 01:49:08;;;;;;;2.83;1.40;;;;;;;;;;5047980;28;20512;-73
2023/09/01 01:51:34;;;;;;;2.50;0.80;;;;;;;;;;5048514;28;20496;-73
2023/09/01 01:54:00;;;;;;;0.90;0.90;;;;;;;;;;5052337;28;20466;-72
2023/09/01 01:56:26;;;;;;;2.20;0.93;;;;;;;;;;5050385;28;20438;-73
2023/09/01 01:58:52;;;;;;;3.17;1.10;;;;;;;;;;5047429;28;20443;-72
2023/09/01 02:01:18;;;;;;;2.50;0.90;;;;;;;;;;5051410;28;20818;-72
2023/09/01 02:03:44;;;;;;;0.70;0.70;;;;;;;;;;5048765;28;20834;-72
2023/09/01 02:06:10;;;;;;;2.03;0.87;;;;;;;;;;5047563;28;20438;-73
2023/09/01 02:08:37;;;;;;;1.50;1.00;;;;;;;;;;5047277;28;20528;-72
2023/09/01 02:11:04;;;;;;;1.53;1.23;;;;;;;;;;5046111;28;20495;-70
2023/09/01 02:13:30;;;;;;;3.40;1.10;;;;;;;;;;5050246;28;20429;-71
2023/09/01 02:15:56;;;;;;;6.90;1.20;;;;;;;;;;5050529;28;20437;-72
2023/09/01 02:18:23;;;;;;;1.13;1.00;;;;;;;;;;5049138;28;20445;-70
2023/09/01 02:20:49;;;;;;;1.03;0.77;;;;;;;;;;5050884;28;20496;-72
2023/09/01 02:23:16;;;;;;;7.00;0.87;;;;;;;;;;5050228;28;20441;-72
2023/09/01 02:25:42;;;;;;;2.20;1.10;;;;;;;;;;5051103;28;20478;-72
2023/09/01 02:28:08;;;;;;;0.90;0.90;;;;;;;;;;5049068;28;20453;-73
2023/09/01 02:30:34;;;;;;;0.70;0.70;;;;;;;;;;5049623;28;20926;-72
2023/09/01 02:33:00;;;;;;;5.70;1.00;;;;;;;;;;5047868;28;20446;-70
2023/09/01 02:35:27;;;;;;;1.03;1.00;;;;;;;;;;5044628;28;20442;-71
2023/09/01 02:37:52;;;;;;;5.70;1.03;;;;;;;;;;5048544;28;20454;-70
2023/09/01 02:40:22;;;;;;;3.40;2.87;;;;;;;;;;5050988;28;20793;-70
2023/09/01 02:42:48;;;;;;;2.00;0.77;;;;;;;;;;5049844;28;20430;-73
2023/09/01 02:45:14;;;;;;;1.47;1.00;;;;;;;;;;5047548;28;20485;-73
2023/09/01 02:47:40;;;;;;;0.80;0.80;;;;;;;;;;5048373;28;20438;-73
2023/09/01 02:50:07;;;;;;;0.60;0.60;;;;;;;;;;5047944;28;20599;-70
2023/09/01 02:52:33;;;;;;;1.57;1.07;;;;;;;;;;5047294;28;20443;-71
2023/09/01 02:54:59;;;;;;;0.73;0.73;;;;;;;;;;5047289;28;20477;-72
2023/09/01 02:57:25;;;;;;;3.13;1.23;;;;;;;;;;5046350;28;21013;-72
2023/09/01 02:59:54;;;;;;;2.00;1.03;;;;;;;;;;5048655;28;20468;-72
2023/09/01 03:02:21;;;;;;;0.70;0.70;;;;;;;;;;5050333;28;20783;-72
2023/09/01 03:04:52;;;;;;;1.00;1.00;;;;;;;;;;5046909;28;20478;-71
2023/09/01 03:07:18;;;;;;;1.90;0.80;;;;;;;;;;5047487;28;20460;-72
2023/09/01 03:09:44;;;;;;;1.67;0.80;;;;;;;;;;5050690;28;20458;-72
2023/09/01 03:12:10;;;;;;;3.27;0.80;;;;;;;;;;5047597;28;20438;-73
2023/09/01 03:14:36;;;;;;;2.00;0.80;;;;;;;;;;5048506;28;20449;-73
2023/09/01 03:17:04;;;;;;;0.60;0.60;;;;;;;;;;5050235;28;21014;-72
2023/09/01 03:19:30;;;;;;;2.50;0.60;;;;;;;;;;5046701;28;20439;-69
2023/09/01 03:21:56;;;;;;;0.87;0.80;;;;;;;;;;5050043;28;20446;-72
2023/09/01 03:24:22;;;;;;;1.73;0.63;;;;;;;;;;5047392;28;20578;-71
2023/09/01 03:26:48;;;;;;;1.47;0.90;;;;;;;;;;5049064;28;20430;-71
2023/09/01 03:29:14;;;;;;;1.10;1.10;;;;;;;;;;5051050;28;20458;-71
2023/09/01 03:31:40;;;;;;;1.00;1.00;;;;;;;;;;5047106;28;20426;-72
2023/09/01 03:34:07;;;;;;;3.07;1.20;;;;;;;;;;5046571;28;20521;-71
2023/09/01 03:36:33;;;;;;;1.00;1.00;;;;;;;;;;5050203;28;20858;-71
2023/09/01 03:38:59;;;;;;;0.90;0.90;;;;;;;;;;5046967;28;20449;-71
2023/09/01 03:41:25;;;;;;;0.80;0.80;;;;;;;;;;5047808;28;20434;-72
2023/09/01 03:43:51;;;;;;;0.90;0.90;;;;;;;;;;5045655;28;20470;-71
2023/09/01 03:46:17;;;;;;;2.10;0.90;;;;;;;;;;5044513;28;20867;-71
2023/09/01 03:48:43;;;;;;;1.30;1.27;;;;;;;;;;5050217;28;20434;-73
2023/09/01 03:51:10;;;;;;;0.60;0.60;;;;;;;;;;5047452;28;20445;-72
2023/09/01 03:53:37;;;;;;;1.13;0.73;;;;;;;;;;5043470;28;20512;-72
2023/09/01 03:56:07;;;;;;;4.93;1.33;;;;;;;;;;5045319;28;20454;-72
2023/09/01 03:58:33;;;;;;;1.07;1.07;;;;;;;;;;5047298;28;20430;-72
2023/09/01 04:00:59;;;;;;;0.80;0.80;;;;;;;;;;5047451;28;20513;-69
2023/09/01 04:03:25;;;;;;;1.50;0.77;;;;;;;;;;5049131;28;20529;-72
2023/09/01 04:05:57;;;;;;;1.47;1.07;;;;;;;;;;5046346;28;20505;-73
2023/09/01 04:08:23;;;;;;;0.50;0.50;;;;;;;;;;5046705;28;20442;-71
2023/09/01 04:10:49;;;;;;;1.03;0.93;;;;;;;;;;5049354;28;21068;-69
2023/09/01 04:13:15;;;;;;;0.70;0.70;;;;;;;;;;5049521;28;20423;-69
2023/09/01 04:15:40;;;;;;;1.30;1.20;;;;;;;;;;5046398;28;20450;-72
2023/09/01 04:18:06;;;;;;;1.10;0.90;;;;;;;;;;5048814;28;20441;-71
2023/09/01 04:20:32;;;;;;;1.40;1.10;;;;;;;;;;5047648;28;20431;-71
2023/09/01 04:22:58;;;;;;;1.03;1.03;;;;;;;;;;5047318;28;20933;-72
2023/09/01 04:25:24;;;;;;;1.50;1.00;;;;;;;;;;5047120;28;20990;-71
2023/09/01 04:27:50;;;;;;;0.80;0.80;;;;;;;;;;5048015;28;21229;-72
2023/09/01 04:30:16;;;;;;;3.03;1.50;;;;;;;;;;5043617;28;20434;-72
2023/09/01 04:32:44;;;;;;;1.70;0.80;;;;;;;;;;5044834;28;20437;-72
2023/09/01 04:35:10;;;;;;;1.23;1.13;;;;;;;;;;5047908;28;20430;-73
2023/09/01 04:37:36;;;;;;;1.10;1.00;;;;;;;;;;5046169;28;20448;-73
2023/09/01 04:40:06;;;;;;;0.87;0.87;;;;;;;;;;5048368;28;20426;-72
2023/09/01 04:42:32;;;;;;;1.70;1.40;;;;;;;;;;5048564;28;20429;-72
2023/09/01 04:44:58;;;;;;;1.40;1.30;;;;;;;;;;5048032;28;20482;-72
2023/09/01 04:47:24;;;;;;;1.30;1.17;;;;;;;;;;5046509;28;20438;-72
2023/09/01 04:49:50;;;;;;;2.53;0.60;;;;;;;;;;5047985;28;20449;-73
2023/09/01 04:52:16;;;;;;;1.47;1.47;;;;;;;;;;5047354;28;20517;-71
2023/09/01 04:54:42;;;;;;;5.57;1.77;;;;;;;;;;5047032;28;20489;-72
2023/09/01 04:57:08;;;;;;;0.93;0.93;;;;;;;;;;5045893;28;20450;-72
2023/09/01 04:59:34;;;;;;;1.07;1.07;;;;;;;;;;5047200;28;20435;-72
2023/09/01 05:02:00;;;;;;;3.13;1.20;;;;;;;;;;5046617;28;20469;-73
2023/09/01 05:04:26;;;;;;;1.13;0.90;;;;;;;;;;5046128;28;20462;-72
2023/09/01 05:06:52;;;;;;;9.93;0.90;;;;;;;;;;5043534;28;20446;-71
2023/09/01 05:09:19;;;;;;;1.70;1.17;;;;;;;;;;5051735;28;20434;-71
2023/09/01 05:11:45;;;;;;;1.20;1.20;;;;;;;;;;5052940;28;20511;-72
2023/09/01 05:14:10;;;;;;;2.07;1.00;;;;;;;;;;5055150;28;20886;-70
2023/09/01 05:16:36;;;;;;;1.37;1.10;;;;;;;;;;5049952;28;20449;-69
2023/09/01 05:19:02;;;;;;;1.80;1.23;;;;;;;;;;5050576;28;20441;-72
2023/09/01 05:21:28;;;;;;;1.13;0.80;;;;;;;;;;5050869;28;20445;-69
2023/09/01 05:23:54;;;;;;;1.23;1.03;;;;;;;;;;5053041;28;20857;-71
2023/09/01 05:26:20;;;;;;;1.33;1.27;;;;;;;;;;5054309;28;20507;-72
2023/09/01 05:28:46;;;;;;;0.70;0.70;;;;;;;;;;5053480;28;20441;-69
2023/09/01 05:31:12;;;;;;;4.37;1.40;;;;;;;;;;5053453;28;20438;-72
2023/09/01 05:33:38;;;;;;;0.93;0.90;;;;;;;;;;5050596;28;20489;-73
2023/09/01 05:36:04;;;;;;;3.37;1.03;;;;;;;;;;5051995;28;20458;-72
2023/09/01 05:38:30;;;;;;;1.50;1.20;;;;;;;;;;5053510;28;20449;-72
2023/09/01 05:41:00;;;;;;;0.90;0.90;;;;;;;;;;5054395;28;20434;-73
2023/09/01 05:43:26;;;;;;;1.90;1.60;;;;;;;;;;5053353;28;20435;-72
2023/09/01 05:45:52;;;;;;;1.00;1.00;;;;;;;;;;5051703;28;20527;-71
2023/09/01 05:48:18;;;;;;;3.70;1.07;;;;;;;;;;5052353;28;20434;-72
2023/09/01 05:50:44;;;;;;;1.53;1.40;;;;;;;;;;5053180;28;20484;-73
2023/09/01 05:53:10;;;;;;;1.33;1.33;;;;;;;;;;5055430;28;20454;-72
2023/09/01 05:55:39;;;;;;;1.50;0.90;;;;;;;;;;5049197;28;21016;-72
2023/09/01 05:58:05;;;;;;;0.70;0.70;;;;;;;;;;5049104;28;21620;-68
2023/09/01 06:00:31;;;;;;;1.17;0.97;;;;;;;;;;5055827;28;20426;-69
2023/09/01 06:02:57;;;;;;;2.47;1.00;;;;;;;;;;5052437;28;20449;-71
2023/09/01 06:05:23;;;;;;;1.17;1.00;;;;;;;;;;5054057;28;20554;-70
2023/09/01 06:07:49;;;;;;;0.63;0.63;;;;;;;;;;5051220;28;20447;-70
2023/09/01 06:10:15;;;;;;;0.87;0.87;;;;;;;;;;5049440;28;20460;-69
2023/09/01 06:12:41;;;;;;;1.07;1.07;;;;;;;;;;5052102;28;20481;-70
2023/09/01 06:15:07;;;;;;;2.70;1.77;;;;;;;;;;5051811;28;20434;-72
2023/09/01 06:17:33;;;;;;;1.80;0.97;;;;;;;;;;5052879;28;20984;-71
2023/09/01 06:20:00;;;;;;;3.00;1.03;;;;;;;;;;5051589;28;20438;-73
2023/09/01 06:22:26;;;;;;;1.13;1.13;;;;;;;;;;5049392;28;20430;-72
2023/09/01 06:24:52;;;;;;;1.10;1.10;;;;;;;;;;5050542;28;20486;-70
2023/09/01 06:27:18;;;;;;;1.47;1.37;;;;;;;;;;5050117;28;20423;-71
2023/09/01 06:29:44;;;;;;;1.20;1.20;;;;;;;;;;5047711;28;20797;-71
2023/09/01 06:32:11;;;;;;;2.83;1.17;;;;;;;;;;5046924;28;20434;-69
2023/09/01 06:34:38;;;;;;;2.30;1.30;;;;;;;;;;5043175;28;20453;-70
2023/09/01 06:37:04;;;;;;;1.30;1.30;;;;;;;;;;5048615;28;20430;-71
2023/09/01 06:39:30;;;;;;;1.07;1.03;;;;;;;;;;5050889;28;20436;-70
2023/09/01 06:41:56;;;;;;;4.30;1.10;;;;;;;;;;5051604;28;20441;-71
2023/09/01 06:44:21;;;;;;;2.70;1.30;;;;;;;;;;5049343;28;21006;-70
2023/09/01 06:46:47;;;;;;;1.23;0.90;;;;;;;;;;5041985;28;20530;-71
2023/09/01 06:49:14;;;;;;;2.97;1.00;;;;;;;;;;5050338;28;20438;-69
2023/09/01 06:51:40;;;;;;;6.40;1.23;;;;;;;;;;5050013;28;20461;-69
2023/09/01 06:54:06;;;;;;;1.80;0.90;;;;;;;;;;5051126;28;20523;-70
2023/09/01 06:56:32;;;;;;;1.17;1.07;;;;;;;;;;5048752;28;20780;-72
2023/09/01 06:58:58;;;;;;;4.43;1.40;;;;;;;;;;5049176;28;20435;-71
2023/09/01 07:01:27;;;;;;;2.17;1.13;;;;;;;;;;5033073;28;20515;-72
2023/09/01 07:03:53;;;;;;;0.93;0.90;;;;;;;;;;5043187;28;20504;-70
2023/09/01 07:06:19;;;;;;;1.20;1.10;;;;;;;;;;5044699;28;20462;-69
2023/09/01 07:08:45;;;;;;;5.90;1.00;;;;;;;;;;5044229;28;20487;-68
2023/09/01 07:11:14;;;;;;;1.30;1.20;;;;;;;;;;5047388;28;20466;-71
2023/09/01 07:13:40;;;;;;;8.67;1.13;;;;;;;;;;5045294;28;20450;-69
2023/09/01 07:16:06;;;;;;;1.63;1.17;;;;;;;;;;5047485;28;20816;-69
2023/09/01 07:18:32;;;;;;;3.27;0.80;;;;;;;;;;5049251;28;20422;-69
2023/09/01 07:20:59;;;;;;;3.30;1.50;;;;;;;;;;5050911;28;20458;-68
2023/09/01 07:23:25;;;;;;;1.27;1.17;;;;;;;;;;5048542;28;20434;-69
2023/09/01 07:25:52;;;;;;;5.30;1.53;;;;;;;;;;5051181;28;20947;-68
2023/09/01 07:28:18;;;;;;;0.90;0.90;;;;;;;;;;5050013;28;20421;-69
2023/09/01 07:30:44;;;;;;;2.40;1.33;;;;;;;;;;5049734;28;20439;-69
2023/09/01 07:33:10;;;;;;;1.70;1.60;;;;;;;;;;5050928;28;20468;-68
2023/09/01 07:35:36;;;;;;;2.57;1.77;;;;;;;;;;5045652;28;20954;-69
2023/09/01 07:38:03;;;;;;;6.10;1.47;;;;;;;;;;5038620;28;20442;-69
2023/09/01 07:40:32;;;;;;;2.00;0.90;;;;;;;;;;5037192;28;20979;-69
2023/09/01 07:42:58;;;;;;;1.60;0.97;;;;;;;;;;5046277;28;20572;-69
2023/09/01 07:45:24;;;;;;;5.00;0.93;;;;;;;;;;5043870;28;20968;-69
2023/09/01 07:47:50;;;;;;;1.23;1.23;;;;;;;;;;5040472;28;20447;-68
2023/09/01 07:50:16;;;;;;;3.17;1.17;;;;;;;;;;5044304;28;20477;-68
2023/09/01 07:52:42;;;;;;;1.43;1.37;;;;;;;;;;5046240;28;20442;-71
2023/09/01 07:55:08;;;;;;;1.47;1.10;;;;;;;;;;5045047;28;20939;-68
2023/09/01 07:57:34;;;;;;;2.67;1.17;;;;;;;;;;5047890;28;20445;-69
2023/09/01 08:00:00;;;;;;;1.93;1.20;;;;;;;;;;5039780;28;20458;-69
2023/09/01 08:02:26;;;;;;;1.23;1.10;;;;;;;;;;5039619;28;20934;-68
2023/09/01 08:04:52;;;;;;;1.00;1.00;;;;;;;;;;5049576;28;20570;-69
2023/09/01 08:07:18;;;;;;;0.60;0.60;;;;;;;;;;5047373;28;20869;-69
2023/09/01 08:09:44;;;;;;;0.90;0.90;;;;;;;;;;5047498;28;20430;-68
2023/09/01 08:12:10;;;;;;;0.90;0.90;;;;;;;;;;5045870;28;20496;-69
2023/09/01 08:14:36;;;;;;;1.33;1.27;;;;;;;;;;5044790;28;20938;-69
2023/09/01 08:17:02;;;;;;;0.83;0.83;;;;;;;;;;5045549;28;20433;-70
2023/09/01 08:19:28;;;;;;;1.43;1.33;;;;;;;;;;5048510;28;20453;-68
2023/09/01 08:21:56;;;;;;;0.73;0.73;;;;;;;;;;5042376;28;20857;-68
2023/09/01 08:24:22;;;;;;;4.27;1.30;;;;;;;;;;5047969;28;20907;-68
2023/09/01 08:26:48;;;;;;;2.80;2.33;;;;;;;;;;5049661;28;20848;-69
2023/09/01 08:29:14;;;;;;;1.03;1.03;;;;;;;;;;5046243;28;20425;-69
2023/09/01 08:31:41;;;;;;;1.33;0.83;;;;;;;;;;5049447;28;20502;-69
2023/09/01 08:34:10;;;;;;;0.83;0.73;;;;;;;;;;5048640;28;20430;-69
2023/09/01 08:36:36;;;;;;;5.70;1.40;;;;;;;;;;5047455;28;20431;-68
2023/09/01 08:39:03;;;;;;;1.10;1.10;;;;;;;;;;5048346;28;20465;-68
2023/09/01 08:41:29;;;;;;;1.60;0.87;;;;;;;;;;5047166;28;20468;-68
2023/09/01 08:43:58;;;;;;;1.17;0.90;;;;;;;;;;5048316;28;20473;-71
2023/09/01 08:46:25;;;;;;;1.13;1.10;;;;;;;;;;5047589;28;21554;-69
2023/09/01 08:48:52;;;;;;;2.53;0.90;;;;;;;;;;5041883;28;20870;-68
2023/09/01 08:51:19;;;;;;;1.30;1.30;;;;;;;;;;5048494;28;20883;-69
2023/09/01 08:53:46;;;;;;;1.07;0.93;;;;;;;;;;5049290;28;20473;-69
2023/09/01 08:56:12;;;;;;;1.20;1.20;;;;;;;;;;5049752;28;20425;-69
2023/09/01 08:58:40;;;;;;;2.57;1.40;;;;;;;;;;5048966;28;20430;-69
2023/09/01 09:01:06;;;;;;;1.00;1.00;;;;;;;;;;5046897;28;21108;-68
2023/09/01 09:03:33;;;;;;;1.00;1.00;;;;;;;;;;5045771;28;20845;-69
2023/09/01 09:05:59;;;;;;;1.53;1.27;;;;;;;;;;5048083;28;20967;-68
2023/09/01 09:08:25;;;;;;;1.90;1.80;;;;;;;;;;5048303;28;20481;-70
2023/09/01 09:10:51;;;;;;;0.90;0.90;;;;;;;;;;5048172;28;20449;-68
2023/09/01 09:13:21;;;;;;;1.30;1.30;;;;;;;;;;5046375;28;20426;-70
2023/09/01 09:16:05;;;;;;;2.53;1.07;;;;;;;;;;5047795;28;20434;-69
2023/09/01 09:18:32;;;;;;;0.93;0.93;;;;;;;;;;5049341;28;20422;-68
2023/09/01 09:20:58;;;;;;;1.10;1.10;;;;;;;;;;5046129;28;20472;-68
2023/09/01 09:23:45;;;;;;;1.47;0.70;;;;;;;;;;5045730;28;20442;-69
2023/09/01 09:26:11;;;;;;;1.27;1.00;;;;;;;;;;5046325;28;20533;-69
2023/09/01 09:28:37;;;;;;;3.10;1.10;;;;;;;;;;5047485;28;20445;-69
2023/09/01 09:31:03;;;;;;;0.97;0.97;;;;;;;;;;5047635;28;20441;-69
2023/09/01 09:33:30;;;;;;;3.23;2.00;;;;;;;;;;5048596;28;20430;-68
2023/09/01 09:35:56;;;;;;;4.30;1.07;;;;;;;;;;5045514;28;20911;-68
2023/09/01 09:38:22;;;;;;;1.60;1.00;;;;;;;;;;5049233;28;20513;-68
2023/09/01 09:40:58;;;;;;;2.20;1.27;;;;;;;;;;5049330;28;20418;-69
2023/09/01 09:43:24;;;;;;;1.33;0.83;;;;;;;;;;5047095;28;20540;-68
2023/09/01 09:45:54;;;;;;;1.27;1.27;;;;;;;;;;5047872;28;20608;-69
2023/09/01 09:48:20;;;;;;;2.23;1.00;;;;;;;;;;5047833;28;20422;-68
2023/09/01 09:50:47;;;;;;;2.70;0.90;;;;;;;;;;5047231;28;20781;-69
2023/09/01 09:53:16;;;;;;;1.13;0.70;;;;;;;;;;5046887;28;21726;-69
2023/09/01 09:55:46;;;;;;;2.10;1.30;;;;;;;;;;5050801;28;20459;-68
2023/09/01 09:58:12;;;;;;;5.70;1.10;;;;;;;;;;5052130;28;20444;-68
2023/09/01 10:00:56;;;;;;;1.43;1.33;;;;;;;;;;5050900;28;20457;-69
2023/09/01 10:03:25;;;;;;;2.20;2.17;;;;;;;;;;5052223;28;20518;-68
2023/09/01 10:05:51;;;;;;;5.20;0.93;;;;;;;;;;5052740;28;20493;-68
2023/09/01 10:08:20;;;;;;;1.17;0.80;;;;;;;;;;5050923;28;20830;-68
2023/09/01 10:10:46;;;;;;;0.87;0.87;;;;;;;;;;5050218;28;20431;-69
2023/09/01 10:13:12;;;;;;;1.30;1.13;;;;;;;;;;5049012;28;20442;-68
2023/09/01 10:15:39;;;;;;;1.70;1.60;;;;;;;;;;5048965;28;20434;-69
2023/09/01 10:18:07;;;;;;;1.57;1.47;;;;;;;;;;5047318;28;20815;-68
2023/09/01 10:20:37;;;;;;;3.60;0.90;;;;;;;;;;5049810;28;20524;-68
2023/09/01 10:23:04;;;;;;;4.63;0.93;;;;;;;;;;5049223;28;20457;-68
2023/09/01 10:25:30;;;;;;;2.60;1.20;;;;;;;;;;5050876;28;20478;-69
2023/09/01 10:28:06;;;;;;;7.93;1.00;;;;;;;;;;5051548;28;20895;-70
2023/09/01 10:30:34;;;;;;;5.60;0.97;;;;;;;;;;5050971;28;20430;-69
2023/09/01 10:33:06;;;;;;;3.57;1.40;;;;;;;;;;5052035;28;20520;-68
2023/09/01 10:35:40;;;;;;;1.30;1.30;;;;;;;;;;5049001;28;20525;-68
2023/09/01 10:38:13;;;;;;;2.33;2.23;;;;;;;;;;5050573;28;20556;-68
2023/09/01 10:40:40;;;;;;;2.60;1.13;;;;;;;;;;5047962;28;20430;-68
2023/09/01 10:43:06;;;;;;;4.33;1.40;;;;;;;;;;5050491;28;20425;-68
2023/09/01 10:45:32;;;;;;;2.23;2.10;;;;;;;;;;5051556;28;20489;-69
2023/09/01 10:47:58;;;;;;;2.43;1.10;;;;;;;;;;5052169;28;20426;-68
2023/09/01 10:50:25;;;;;;;1.20;1.10;;;;;;;;;;5050203;28;20449;-68
2023/09/01 10:53:09;;;;;;;5.33;1.20;;;;;;;;;;5047071;28;20526;-68
2023/09/01 10:55:55;;;;;;;1.60;1.50;;;;;;;;;;5046763;28;20446;-68
2023/09/01 10:58:22;;;;;;;0.97;0.90;;;;;;;;;;5051516;28;20503;-68
2023/09/01 11:00:49;;;;;;;0.83;0.83;;;;;;;;;;5047923;28;20430;-68
2023/09/01 11:03:32;;;;;;;9.80;9.13;;;;;;;;;;5047726;28;20533;-68
2023/09/01 11:05:59;;;;;;;2.80;1.60;;;;;;;;;;5029166;28;21837;-68
2023/09/01 11:08:25;;;;;;;2.10;0.87;;;;;;;;;;5039764;28;20915;-68
2023/09/01 11:10:55;;;;;;;1.10;1.10;;;;;;;;;;5047179;28;20442;-69
2023/09/01 11:13:21;;;;;;;0.90;0.90;;;;;;;;;;5044607;28;20430;-68
2023/09/01 11:15:47;;;;;;;1.13;1.13;;;;;;;;;;5047376;28;20453;-69
2023/09/01 11:18:17;;;;;;;1.07;1.07;;;;;;;;;;5046631;28;20522;-69
2023/09/01 11:20:43;;;;;;;1.43;1.37;;;;;;;;;;5042796;28;20820;-68
2023/09/01 11:23:09;;;;;;;6.57;0.90;;;;;;;;;;5039801;28;20479;-68
2023/09/01 11:25:35;;;;;;;2.87;1.30;;;;;;;;;;5046085;28;20489;-69
2023/09/01 11:28:02;;;;;;;0.80;0.80;;;;;;;;;;5046981;28;20419;-68
2023/09/01 11:30:28;;;;;;;3.40;1.20;;;;;;;;;;5046681;28;20478;-68
2023/09/01 11:32:54;;;;;;;1.03;1.03;;;;;;;;;;5048476;28;20430;-68
2023/09/01 11:35:23;;;;;;;1.10;1.10;;;;;;;;;;5049399;28;20525;-68
2023/09/01 11:37:49;;;;;;;1.00;0.90;;;;;;;;;;5046363;28;20432;-68
2023/09/01 11:40:15;;;;;;;1.20;1.10;;;;;;;;;;5051412;28;20415;-69
2023/09/01 11:42:43;;;;;;;1.20;1.10;;;;;;;;;;5049508;28;20530;-69
2023/09/01 11:45:10;;;;;;;4.27;1.17;;;;;;;;;;5050590;28;20970;-68
2023/09/01 11:47:36;;;;;;;2.67;1.10;;;;;;;;;;5050995;28;20418;-69
2023/09/01 11:50:02;;;;;;;1.87;1.30;;;;;;;;;;5043053;28;20446;-68
2023/09/01 11:52:28;;;;;;;0.90;0.90;;;;;;;;;;5045193;28;20441;-68
2023/09/01 11:54:54;;;;;;;2.73;1.00;;;;;;;;;;5046345;28;20474;-69
2023/09/01 11:57:21;;;;;;;0.90;0.90;;;;;;;;;;5046110;28;20558;-68
2023/09/01 11:59:48;;;;;;;0.90;0.90;;;;;;;;;;5048648;28;20442;-68
2023/09/01 12:02:20;;;;;;;0.90;0.90;;;;;;;;;;5047959;28;20772;-69
2023/09/01 12:04:47;;;;;;;0.90;0.90;;;;;;;;;;5048724;28;20493;-69
2023/09/01 12:07:26;;;;;;;0.80;0.80;;;;;;;;;;5049229;28;20426;-68
2023/09/01 12:09:52;;;;;;;4.67;0.90;;;;;;;;;;5050532;28;20495;-68
2023/09/01 12:12:18;;;;;;;0.90;0.90;;;;;;;;;;5050243;28;20445;-68
2023/09/01 12:14:44;;;;;;;1.20;1.17;;;;;;;;;;5050021;28;20483;-68
2023/09/01 12:17:18;;;;;;;2.70;1.20;;;;;;;;;;5049157;28;20529;-68
2023/09/01 12:19:48;;;;;;;1.20;1.10;;;;;;;;;;5049568;28;21897;-68
2023/09/01 12:22:14;;;;;;;1.13;0.80;;;;;;;;;;5049510;28;20430;-68
2023/09/01 12:24:49;;;;;;;1.20;0.70;;;;;;;;;;5045842;28;20577;-69
2023/09/01 12:27:15;;;;;;;1.00;1.00;;;;;;;;;;5048924;28;20461;-68
2023/09/01 12:29:41;;;;;;;1.10;1.10;;;;;;;;;;5050057;28;20907;-68
2023/09/01 12:32:07;;;;;;;0.70;0.70;;;;;;;;;;5049297;28;20485;-68
2023/09/01 12:34:33;;;;;;;2.53;0.90;;;;;;;;;;5049430;28;20441;-69
2023/09/01 12:36:59;;;;;;;1.07;1.00;;;;;;;;;;5048126;28;20509;-69
2023/09/01 12:39:25;;;;;;;2.67;1.00;;;;;;;;;;5040560;28;20447;-68
2023/09/01 12:41:51;;;;;;;1.50;0.80;;;;;;;;;;5047696;28;20941;-68
2023/09/01 12:44:17;;;;;;;0.90;0.90;;;;;;;;;;5048705;28;20462;-68
2023/09/01 12:46:43;;;;;;;1.47;0.73;;;;;;;;;;5047868;28;20437;-68
2023/09/01 12:49:09;;;;;;;1.37;0.80;;;;;;;;;;5049480;28;20496;-69
2023/09/01 12:51:35;;;;;;;1.00;1.00;;;;;;;;;;5049027;28;20422;-68
2023/09/01 12:54:03;;;;;;;1.57;1.57;;;;;;;;;;5049825;28;20481;-68
2023/09/01 12:56:29;;;;;;;1.23;1.23;;;;;;;;;;5049471;28;20513;-69
2023/09/01 12:58:55;;;;;;;0.60;0.60;;;;;;;;;;5046351;28;20529;-68
2023/09/01 13:01:21;;;;;;;1.17;1.00;;;;;;;;;;5049083;28;20410;-69
2023/09/01 13:03:47;;;;;;;1.27;1.03;;;;;;;;;;5049239;28;20446;-69
2023/09/01 13:06:13;;;;;;;1.50;1.40;;;;;;;;;;5048874;28;20516;-68
2023/09/01 13:08:39;;;;;;;0.80;0.80;;;;;;;;;;5048937;28;20422;-68
2023/09/01 13:11:07;;;;;;;0.60;0.60;;;;;;;;;;5046845;28;20589;-68
2023/09/01 13:13:33;;;;;;;1.40;1.40;;;;;;;;;;5045215;28;20938;-68
2023/09/01 13:15:59;;;;;;;2.50;1.63;;;;;;;;;;5034777;28;20517;-68
2023/09/01 13:18:25;;;;;;;0.93;0.93;;;;;;;;;;5045627;28;21038;-69
2023/09/01 13:20:51;;;;;;;1.80;1.03;;;;;;;;;;5045506;28;20439;-68
2023/09/01 13:23:17;;;;;;;3.47;0.70;;;;;;;;;;5048426;28;20441;-68
2023/09/01 13:25:43;;;;;;;0.70;0.70;;;;;;;;;;5047697;28;20490;-68
2023/09/01 13:28:09;;;;;;;9.83;1.10;;;;;;;;;;5048469;28;20954;-68
2023/09/01 13:30:36;;;;;;;0.97;0.97;;;;;;;;;;5051628;28;20430;-68
2023/09/01 13:33:03;;;;;;;1.10;1.10;;;;;;;;;;5050507;28;20414;-68
2023/09/01 13:35:29;;;;;;;5.50;1.10;;;;;;;;;;5050154;28;20434;-68
2023/09/01 13:37:55;;;;;;;2.37;1.07;;;;;;;;;;5044212;28;20956;-69
2023/09/01 13:40:21;;;;;;;1.03;1.03;;;;;;;;;;5049127;28;20434;-68
2023/09/01 13:42:47;;;;;;;1.03;0.80;;;;;;;;;;5052476;28;20471;-68
2023/09/01 13:45:13;;;;;;;2.23;0.83;;;;;;;;;;5052820;28;20903;-68
2023/09/01 13:47:39;;;;;;;0.80;0.80;;;;;;;;;;5050552;28;20438;-68
2023/09/01 13:50:05;;;;;;;0.90;0.90;;;;;;;;;;5052740;28;20422;-69
2023/09/01 13:52:31;;;;;;;1.20;1.10;;;;;;;;;;5051426;28;20505;-68
2023/09/01 13:54:57;;;;;;;1.10;1.03;;;;;;;;;;5047984;28;20481;-67
2023/09/01 13:57:23;;;;;;;5.80;0.70;;;;;;;;;;5053002;28;20438;-68
2023/09/01 13:59:49;;;;;;;0.87;0.87;;;;;;;;;;5051713;28;20511;-68
2023/09/01 14:02:15;;;;;;;4.93;1.67;;;;;;;;;;5052610;28;20429;-69
2023/09/01 14:04:42;;;;;;;1.20;0.73;;;;;;;;;;5052038;28;20485;-68
2023/09/01 14:07:08;;;;;;;1.90;0.90;;;;;;;;;;5051330;28;20430;-68
2023/09/01 14:09:34;;;;;;;1.00;1.00;;;;;;;;;;5049234;28;20430;-68
2023/09/01 14:12:01;;;;;;;4.67;0.90;;;;;;;;;;5047670;28;20442;-68
2023/09/01 14:14:27;;;;;;;3.07;0.90;;;;;;;;;;5052530;28;20418;-68
2023/09/01 14:16:53;;;;;;;1.40;1.17;;;;;;;;;;5049260;28;20529;-68
2023/09/01 14:19:19;;;;;;;0.83;0.83;;;;;;;;;;5048325;28;20797;-69
2023/09/01 14:21:45;;;;;;;2.93;0.90;;;;;;;;;;5049942;28;20439;-68
2023/09/01 14:24:14;;;;;;;0.87;0.87;;;;;;;;;;5050384;28;20442;-68
2023/09/01 14:26:44;;;;;;;1.43;1.33;;;;;;;;;;5051440;28;20454;-68
2023/09/01 14:29:10;;;;;;;0.90;0.90;;;;;;;;;;5047336;28;20435;-68
2023/09/01 14:31:36;;;;;;;0.83;0.83;;;;;;;;;;5049934;28;20483;-69
2023/09/01 14:34:02;;;;;;;1.13;1.13;;;;;;;;;;5051162;28;20434;-69
2023/09/01 14:36:28;;;;;;;2.93;1.17;;;;;;;;;;5049111;28;20470;-68
2023/09/01 14:38:55;;;;;;;3.80;1.03;;;;;;;;;;5049010;28;20446;-68
2023/09/01 14:41:21;;;;;;;0.77;0.77;;;;;;;;;;5050076;28;20440;-68